Time;durP1;ratioP1;P1;durP2;ratioP2;P2;SDS_P1;SDS_P2;PMS_P1;PMS_P2;Temp;Humidity;BMP_temperature;BMP_pressure;BME280_temperature;BME280_humidity;BME280_pressure;Samples;Min_cycle;Max_cycle;Signal;HPM_P1;HPM_P2
2023/02/09 00:04:17;;;;;;;27.35;11.38;;;;;;;-0.83;53.35;102128.13;10236659;28;20043;-76
2023/02/09 00:09:20;;;;;;;24.25;10.98;;;;;;;-0.95;53.47;102131.72;10244446;28;20075;-76
2023/02/09 00:14:23;;;;;;;19.50;11.05;;;;;;;-0.95;53.65;102130.84;10239467;29;20075;-77
2023/02/09 00:19:27;;;;;;;22.27;10.75;;;;;;;-0.96;53.64;102122.06;10240850;28;20056;-75
2023/02/09 00:24:30;;;;;;;24.13;11.15;;;;;;;-1.00;53.79;102125.59;10237595;29;20043;-76
2023/02/09 00:29:33;;;;;;;25.13;11.07;;;;;;;-1.12;54.10;102122.16;10234893;29;20051;-76
2023/02/09 00:34:38;;;;;;;22.75;10.98;;;;;;;-1.19;54.39;102121.28;10243501;29;20073;-74
2023/02/09 00:39:40;;;;;;;21.35;10.98;;;;;;;-1.24;54.54;102126.56;10235826;28;20130;-76
2023/02/09 00:44:44;;;;;;;25.42;11.40;;;;;;;-1.30;54.79;102113.44;10238557;29;20039;-76
2023/02/09 00:49:48;;;;;;;22.38;11.07;;;;;;;-1.37;55.24;102118.72;10240136;29;20109;-76
2023/02/09 00:54:51;;;;;;;23.45;11.38;;;;;;;-1.37;55.18;102110.81;10233906;29;20070;-76
2023/02/09 00:59:54;;;;;;;31.75;13.40;;;;;;;-1.37;55.44;102102.91;10242237;28;20047;-75
2023/02/09 01:04:58;;;;;;;27.27;12.60;;;;;;;-1.47;55.67;102108.22;10231359;29;20134;-76
2023/02/09 01:10:02;;;;;;;27.58;12.15;;;;;;;-1.38;55.71;102111.72;10245163;29;20043;-76
2023/02/09 01:15:05;;;;;;;75.03;22.30;;;;;;;-1.41;55.87;102096.78;10235823;29;20043;-76
2023/02/09 01:20:12;;;;;;;26.85;12.77;;;;;;;-1.47;55.77;102091.53;10234904;29;20464;-76
2023/02/09 01:25:15;;;;;;;21.77;10.45;;;;;;;-1.60;56.65;102095.97;10233573;29;20043;-75
2023/02/09 01:30:17;;;;;;;29.58;12.43;;;;;;;-1.74;56.72;102103.03;10234622;28;20456;-76
2023/02/09 01:35:22;;;;;;;26.77;12.38;;;;;;;-1.69;56.99;102096.88;10254330;29;20059;-77
2023/02/09 01:40:24;;;;;;;27.38;12.73;;;;;;;-1.61;56.63;102094.22;10255427;29;20056;-77
2023/02/09 01:45:31;;;;;;;30.73;12.48;;;;;;;-1.62;56.12;102088.09;10235751;29;20083;-77
2023/02/09 01:50:39;;;;;;;22.25;11.95;;;;;;;-1.63;56.04;102081.03;10255956;29;20054;-77
2023/02/09 01:55:51;;;;;;;23.27;10.13;;;;;;;-1.62;56.23;102064.34;10232861;28;20427;-77
2023/02/09 02:00:53;;;;;;;22.90;10.60;;;;;;;-1.71;56.22;102077.53;10243107;29;20047;-77
2023/02/09 02:06:05;;;;;;;20.98;10.32;;;;;;;-1.72;56.35;102064.41;10235595;29;20058;-77
2023/02/09 02:11:08;;;;;;;26.20;11.35;;;;;;;-1.80;56.40;102056.50;10242773;29;20044;-77
2023/02/09 02:16:28;;;;;;;30.00;12.77;;;;;;;-1.75;56.79;102056.50;10239333;29;20070;-77
2023/02/09 02:22:18;;;;;;;24.60;10.85;;;;;;;-1.89;57.02;102051.28;10248348;29;20047;-77
2023/02/09 02:27:31;;;;;;;22.55;11.10;;;;;;;-1.83;57.02;102045.13;10234365;28;20063;-76
2023/02/09 02:32:52;;;;;;;22.85;10.82;;;;;;;-1.83;56.83;102037.22;10241340;28;20047;-77
2023/02/09 02:38:02;;;;;;;27.27;12.03;;;;;;;-1.82;57.13;102029.28;10249667;29;20387;-75
2023/02/09 02:43:18;;;;;;;19.98;10.23;;;;;;;-1.89;56.93;102028.44;10242609;29;20036;-77
2023/02/09 02:48:33;;;;;;;21.60;10.40;;;;;;;-1.92;56.74;102019.66;10246059;29;20079;-75
2023/02/09 02:53:40;;;;;;;25.70;11.43;;;;;;;-1.90;56.53;102012.63;10241619;29;20039;-76
2023/02/09 02:58:46;;;;;;;24.75;12.23;;;;;;;-1.99;56.46;102007.41;10242081;28;20043;-77
2023/02/09 03:03:51;;;;;;;22.50;10.85;;;;;;;-1.92;56.49;101998.56;10248710;28;20063;-77
2023/02/09 03:08:56;;;;;;;26.40;11.18;;;;;;;-1.93;56.25;101999.47;10238936;29;20075;-76
2023/02/09 03:14:14;;;;;;;25.15;11.95;;;;;;;-1.94;56.52;102017.03;10248893;29;20557;-76
2023/02/09 03:19:29;;;;;;;23.27;11.57;;;;;;;-2.02;56.16;102018.81;10239098;29;20047;-76
2023/02/09 03:24:37;;;;;;;22.35;10.43;;;;;;;-2.01;56.19;102022.31;10240168;28;20071;-76
2023/02/09 03:29:42;;;;;;;21.35;10.77;;;;;;;-1.98;56.44;102009.13;10239746;29;20165;-75
2023/02/09 03:34:47;;;;;;;22.05;9.88;;;;;;;-1.98;56.23;102010.00;10235852;28;20545;-75
2023/02/09 03:39:50;;;;;;;19.77;9.18;;;;;;;-2.03;56.36;102011.78;10246696;28;20134;-74
2023/02/09 03:44:53;;;;;;;24.70;11.35;;;;;;;-2.08;56.56;102011.81;10240995;28;20039;-76
2023/02/09 03:49:58;;;;;;;23.40;11.27;;;;;;;-2.11;56.56;102011.81;10241017;29;20082;-74
2023/02/09 03:55:02;;;;;;;22.30;10.10;;;;;;;-2.04;56.68;101996.00;10240699;28;20130;-76
2023/02/09 04:00:05;;;;;;;22.70;10.00;;;;;;;-2.05;56.51;102002.16;10248173;29;20070;-75
2023/02/09 04:05:14;;;;;;;23.30;11.40;;;;;;;-2.03;56.31;102009.13;10243786;29;20514;-75
2023/02/09 04:10:17;;;;;;;21.48;10.15;;;;;;;-2.08;55.86;102003.91;10253031;23;20094;-77
2023/02/09 04:15:20;;;;;;;23.65;10.52;;;;;;;-2.09;55.86;102010.03;10243166;28;20648;-77
2023/02/09 04:20:24;;;;;;;27.02;10.90;;;;;;;-2.18;55.84;101998.66;10238366;28;20127;-76
2023/02/09 04:25:27;;;;;;;20.88;10.05;;;;;;;-2.16;55.85;101991.66;10234391;28;20125;-77
2023/02/09 04:30:30;;;;;;;24.95;11.65;;;;;;;-2.19;56.21;101975.84;10241984;28;20481;-76
2023/02/09 04:35:34;;;;;;;23.27;11.13;;;;;;;-2.27;55.92;101973.25;10233633;28;20070;-77
2023/02/09 04:40:37;;;;;;;20.80;10.40;;;;;;;-2.29;56.33;101969.72;10240934;28;20047;-77
2023/02/09 04:45:41;;;;;;;24.88;11.63;;;;;;;-2.37;56.84;101971.50;10237965;28;20105;-77
2023/02/09 04:50:45;;;;;;;23.73;11.70;;;;;;;-2.41;56.72;101977.63;10233586;28;20147;-77
2023/02/09 04:55:51;;;;;;;23.05;10.23;;;;;;;-2.42;56.85;101974.13;10239016;28;20465;-76
2023/02/09 05:00:55;;;;;;;23.55;10.88;;;;;;;-2.40;56.86;101967.13;10273136;28;20108;-76
2023/02/09 05:06:01;;;;;;;26.48;12.30;;;;;;;-2.40;57.04;101968.88;10275527;29;20406;-76
2023/02/09 05:11:04;;;;;;;26.17;11.95;;;;;;;-2.43;56.96;101969.75;10242445;28;20046;-76
2023/02/09 05:16:09;;;;;;;26.23;10.68;;;;;;;-2.49;56.89;101968.91;10239817;29;20130;-76
2023/02/09 05:21:14;;;;;;;22.60;11.15;;;;;;;-2.48;57.00;101966.25;10238608;28;20052;-76
2023/02/09 05:26:17;;;;;;;22.85;10.95;;;;;;;-2.65;57.50;101949.63;10230437;28;20496;-76
2023/02/09 05:31:20;;;;;;;26.90;12.05;;;;;;;-2.70;57.75;101939.09;10242220;28;20078;-77
2023/02/09 05:36:24;;;;;;;26.00;10.95;;;;;;;-2.69;57.56;101940.84;10238966;29;20514;-76
2023/02/09 05:46:47;;;;;;;25.00;10.90;;;;;;;-2.42;56.57;101925.88;10239008;29;20130;-76
2023/02/09 05:51:51;;;;;;;19.55;9.90;;;;;;;-2.43;56.09;101939.94;10237118;29;20054;-76
2023/02/09 05:56:54;;;;;;;23.40;10.40;;;;;;;-2.57;56.67;101948.72;10250185;28;20406;-77
2023/02/09 06:01:57;;;;;;;26.67;12.32;;;;;;;-2.55;57.11;101972.38;10241549;29;20094;-75
2023/02/09 06:07:01;;;;;;;28.25;11.60;;;;;;;-2.43;56.91;101969.75;10248648;29;20051;-76
2023/02/09 06:12:04;;;;;;;25.58;11.43;;;;;;;-2.44;56.66;101967.13;10247593;29;20399;-76
2023/02/09 06:17:07;;;;;;;28.10;11.60;;;;;;;-2.44;56.65;101982.91;10242216;28;20039;-76
2023/02/09 06:22:11;;;;;;;22.75;11.02;;;;;;;-2.40;56.35;101961.84;10248376;29;20142;-76
2023/02/09 06:27:14;;;;;;;28.10;11.75;;;;;;;-2.32;56.02;101964.47;10238792;29;20067;-75
2023/02/09 06:32:16;;;;;;;27.20;12.18;;;;;;;-2.24;55.74;101975.88;10248258;28;20484;-76
2023/02/09 06:37:21;;;;;;;23.02;11.25;;;;;;;-2.23;55.75;101992.53;10245389;28;20046;-76
2023/02/09 06:42:23;;;;;;;22.98;11.15;;;;;;;-2.23;55.92;101984.63;10243655;28;20599;-76
2023/02/09 06:47:26;;;;;;;24.70;10.18;;;;;;;-2.26;55.86;101989.91;10246882;28;20047;-75
2023/02/09 06:52:31;;;;;;;25.08;11.23;;;;;;;-2.23;55.66;101974.09;10239561;28;20122;-76
2023/02/09 06:57:34;;;;;;;23.73;11.57;;;;;;;-2.18;55.53;101996.03;10250133;28;20071;-76
2023/02/09 07:02:36;;;;;;;25.65;12.05;;;;;;;-2.20;55.63;102006.56;10242402;28;20506;-75
2023/02/09 07:07:41;;;;;;;27.27;11.50;;;;;;;-2.18;55.91;102017.97;10241907;28;20114;-75
2023/02/09 07:12:44;;;;;;;25.88;11.93;;;;;;;-2.13;56.04;102026.75;10245769;28;20043;-77
2023/02/09 07:17:47;;;;;;;28.38;12.73;;;;;;;-1.99;55.64;102029.34;10237674;28;20110;-75
2023/02/09 07:22:51;;;;;;;27.77;11.88;;;;;;;-1.55;55.08;102016.88;10249257;28;20610;-76
2023/02/09 07:27:54;;;;;;;27.77;12.18;;;;;;;-1.00;54.06;102033.25;10239837;28;20082;-76
2023/02/09 07:32:57;;;;;;;27.75;12.70;;;;;;;-0.84;53.31;102030.53;10242877;29;20145;-75
2023/02/09 07:38:01;;;;;;;29.95;14.00;;;;;;;-0.93;52.87;102017.38;10243138;28;20093;-75
2023/02/09 07:43:05;;;;;;;26.55;11.40;;;;;;;-1.19;53.63;101997.34;10238731;29;20047;-75
2023/02/09 07:48:09;;;;;;;21.92;11.80;;;;;;;-1.32;53.70;101987.75;10245617;28;20051;-76
2023/02/09 07:53:14;;;;;;;20.20;10.55;;;;;;;-1.11;53.14;101982.34;10237792;28;20424;-76
2023/02/09 07:58:18;;;;;;;22.42;9.63;;;;;;;-0.99;52.60;101976.09;10237981;29;20082;-75
2023/02/09 08:03:23;;;;;;;25.23;11.20;;;;;;;-0.99;52.42;101973.44;10243592;28;20126;-76
2023/02/09 08:08:28;;;;;;;21.75;10.27;;;;;;;-0.59;52.13;101960.78;10237216;28;20075;-76
2023/02/09 08:13:36;;;;;;;25.13;12.25;;;;;;;-0.57;52.56;101977.50;10236242;28;20117;-76
2023/02/09 08:18:42;;;;;;;38.80;17.67;;;;;;;0.11;54.99;101998.81;10212762;28;20490;-76
2023/02/09 08:23:51;;;;;;;20.40;9.25;;;;;;;1.18;51.54;101992.88;10207520;28;20051;-77
2023/02/09 08:28:54;;;;;;;22.02;12.50;;;;;;;1.47;49.63;101984.44;10207666;28;20188;-76
2023/02/09 08:33:57;;;;;;;22.13;12.63;;;;;;;1.66;49.28;101995.59;10208414;28;20085;-76
2023/02/09 08:39:02;;;;;;;22.92;11.75;;;;;;;1.69;48.09;102008.78;10201798;28;20053;-76
2023/02/09 08:44:05;;;;;;;21.52;11.93;;;;;;;1.98;48.05;102012.69;10199153;28;20056;-76
2023/02/09 08:49:07;;;;;;;26.10;13.73;;;;;;;2.13;47.91;102015.88;10205739;28;20672;-76
2023/02/09 08:54:12;;;;;;;26.02;13.02;;;;;;;2.24;46.75;102013.00;10206881;28;20051;-76
2023/02/09 08:59:15;;;;;;;29.63;13.00;;;;;;;2.15;46.91;102027.34;10208597;28;20047;-76
2023/02/09 09:04:20;;;;;;;27.75;13.13;;;;;;;1.95;47.23;102027.72;10208611;28;20067;-76
2023/02/09 09:09:25;;;;;;;24.65;13.23;;;;;;;1.64;48.71;102024.75;10209293;28;20077;-76
2023/02/09 09:14:28;;;;;;;24.50;11.50;;;;;;;1.57;48.72;102028.44;10207461;28;20051;-76
2023/02/09 09:19:31;;;;;;;21.17;11.25;;;;;;;1.22;46.85;102034.31;10202326;28;20055;-75
2023/02/09 09:24:39;;;;;;;20.63;10.38;;;;;;;1.31;46.99;102025.34;10201224;28;20047;-76
2023/02/09 09:29:42;;;;;;;25.55;9.98;;;;;;;1.45;46.19;102024.22;10207083;28;20055;-76
2023/02/09 09:34:44;;;;;;;24.63;12.05;;;;;;;1.66;45.43;102040.63;10193600;28;21132;-76
2023/02/09 09:39:49;;;;;;;21.30;9.90;;;;;;;2.60;43.68;102031.75;10210027;28;20043;-76
2023/02/09 09:44:54;;;;;;;25.15;10.23;;;;;;;2.13;43.58;102025.63;10214319;28;20059;-76
2023/02/09 09:49:56;;;;;;;22.23;11.48;;;;;;;1.88;44.40;102017.28;10217239;28;20853;-77
2023/02/09 09:55:02;;;;;;;20.20;9.75;;;;;;;1.85;44.37;102033.22;10215400;28;20435;-76
2023/02/09 10:00:17;;;;;;;20.25;10.65;;;;;;;1.94;44.46;102039.22;10208757;28;20040;-76
2023/02/09 10:05:22;;;;;;;13.88;7.55;;;;;;;2.37;43.35;102035.72;10188890;28;20134;-76
2023/02/09 10:10:37;;;;;;;22.25;11.20;;;;;;;2.79;43.51;102025.13;10184743;28;20044;-76
2023/02/09 10:15:40;;;;;;;22.20;11.63;;;;;;;3.26;41.98;102025.81;10199362;28;20242;-77
2023/02/09 10:20:46;;;;;;;22.88;11.43;;;;;;;3.31;41.90;102025.69;10191133;28;20126;-76
2023/02/09 10:25:57;;;;;;;25.38;12.48;;;;;;;3.49;42.81;102029.69;10209664;28;20117;-77
2023/02/09 10:31:03;;;;;;;18.02;9.27;;;;;;;3.04;42.33;102035.19;10203245;28;20059;-76
2023/02/09 10:36:08;;;;;;;25.38;11.50;;;;;;;4.02;41.01;102014.09;10200586;28;20106;-76
2023/02/09 10:41:14;;;;;;;28.55;14.88;;;;;;;3.44;41.47;101983.75;10206640;28;20051;-77
2023/02/09 10:46:20;;;;;;;20.95;11.68;;;;;;;3.37;42.57;102004.28;10204957;28;20511;-76
2023/02/09 10:51:27;;;;;;;21.10;11.32;;;;;;;3.66;42.14;101979.63;10219515;28;20051;-76
2023/02/09 10:56:43;;;;;;;21.70;10.90;;;;;;;3.64;41.58;101994.72;10213456;28;20194;-77
2023/02/09 11:01:54;;;;;;;18.75;10.40;;;;;;;3.64;41.42;101992.06;10201342;28;20427;-77
2023/02/09 11:06:58;;;;;;;23.52;11.63;;;;;;;4.65;40.08;101987.44;10209929;28;20062;-76
2023/02/09 11:12:03;;;;;;;22.02;11.60;;;;;;;5.55;39.19;101996.97;10201246;28;20055;-76
2023/02/09 11:17:15;;;;;;;19.27;12.15;;;;;;;5.77;38.65;101986.44;10211414;28;20542;-77
2023/02/09 11:22:24;;;;;;;17.02;9.38;;;;;;;5.39;38.65;101992.16;10197078;28;20047;-77
2023/02/09 11:27:43;;;;;;;20.33;9.70;;;;;;;4.56;40.65;101983.28;10204696;28;20154;-77
2023/02/09 11:32:51;;;;;;;24.30;12.43;;;;;;;5.12;39.66;101977.09;10245209;28;21680;-76
2023/02/09 11:37:59;;;;;;;19.60;10.00;;;;;;;5.17;38.96;101968.03;10214369;28;20144;-76
2023/02/09 11:43:14;;;;;;;19.50;10.73;;;;;;;5.23;40.32;101964.28;10228889;28;20493;-75
2023/02/09 11:48:24;;;;;;;25.13;11.48;;;;;;;5.78;38.66;101962.38;10202326;28;20077;-77
2023/02/09 11:53:34;;;;;;;21.13;11.43;;;;;;;5.66;39.46;101976.16;10210804;28;20133;-76
2023/02/09 11:58:44;;;;;;;22.75;11.95;;;;;;;4.77;40.92;101973.72;10211296;28;20045;-77
2023/02/09 12:04:03;;;;;;;20.52;12.40;;;;;;;5.20;40.50;101954.59;10211680;28;20046;-76
2023/02/09 12:09:27;;;;;;;19.58;10.82;;;;;;;4.99;40.58;101961.53;10217582;28;21556;-77
2023/02/09 12:14:47;;;;;;;20.20;11.27;;;;;;;4.62;41.19;101969.78;10211839;28;20051;-77
2023/02/09 12:19:57;;;;;;;23.88;11.73;;;;;;;4.95;40.65;101965.16;10213938;28;20043;-76
2023/02/09 12:25:18;;;;;;;23.33;12.73;;;;;;;5.03;40.13;101964.97;10205294;28;20502;-77
2023/02/09 12:31:01;;;;;;;22.80;11.95;;;;;;;5.31;40.04;101961.38;10218306;28;20082;-76
2023/02/09 12:36:23;;;;;;;22.75;12.82;;;;;;;6.23;38.81;101953.59;10202717;28;20054;-76
2023/02/09 12:41:29;;;;;;;21.05;12.10;;;;;;;6.65;38.29;101952.00;10196938;28;20077;-77
2023/02/09 12:46:52;;;;;;;22.85;12.18;;;;;;;5.45;39.50;101964.44;10204899;28;20051;-77
2023/02/09 12:52:15;;;;;;;20.67;10.43;;;;;;;5.08;39.88;101949.69;10198296;28;20055;-77
2023/02/09 12:57:51;;;;;;;21.38;12.00;;;;;;;6.24;38.63;101955.34;10210388;28;20055;-77
2023/02/09 13:02:56;;;;;;;21.35;12.02;;;;;;;5.33;39.61;101948.88;10211625;28;20079;-76
2023/02/09 13:08:06;;;;;;;20.95;11.65;;;;;;;5.39;40.31;101946.84;10205071;28;20047;-77
2023/02/09 13:13:17;;;;;;;22.25;12.07;;;;;;;5.41;40.41;101953.00;10211756;28;20047;-77
2023/02/09 13:18:31;;;;;;;24.75;13.23;;;;;;;5.59;39.99;101948.81;10213660;28;20048;-77
2023/02/09 13:23:40;;;;;;;24.55;12.15;;;;;;;5.67;39.75;101928.09;10209736;28;20046;-77
2023/02/09 13:28:43;;;;;;;25.88;11.82;;;;;;;6.07;40.06;101931.09;10199840;28;20054;-77
2023/02/09 13:33:52;;;;;;;20.05;11.63;;;;;;;6.30;39.04;101928.41;10205565;28;20051;-77
2023/02/09 13:38:55;;;;;;;19.77;11.20;;;;;;;5.54;39.49;101910.81;10206581;28;20524;-76
2023/02/09 13:43:58;;;;;;;17.35;9.63;;;;;;;5.09;40.25;101916.78;10211721;28;20082;-75
2023/02/09 13:49:12;;;;;;;18.65;11.18;;;;;;;5.69;40.36;101906.72;10206106;28;20049;-75
2023/02/09 13:54:18;;;;;;;23.42;11.20;;;;;;;5.35;40.65;101905.25;10194896;28;21144;-77
2023/02/09 13:59:22;;;;;;;19.50;10.82;;;;;;;5.73;39.97;101914.56;10211589;28;20529;-77
2023/02/09 14:04:30;;;;;;;20.60;11.00;;;;;;;5.63;39.87;101890.94;10209960;28;20106;-77
2023/02/09 14:09:43;;;;;;;21.00;10.50;;;;;;;5.46;40.57;101899.56;10211105;28;20413;-77
2023/02/09 14:20:23;;;;;;;20.73;10.55;;;;;;;4.45;41.59;101901.09;10208302;28;20046;-76
2023/02/09 14:25:26;;;;;;;19.48;10.52;;;;;;;4.57;41.52;101899.84;10215143;28;20054;-77
2023/02/09 14:30:35;;;;;;;20.33;10.77;;;;;;;4.56;42.09;101898.97;10218894;28;20131;-77
2023/02/09 14:35:41;;;;;;;21.83;11.40;;;;;;;4.30;42.16;101905.09;10222857;28;20054;-77
2023/02/09 14:40:44;;;;;;;19.85;10.35;;;;;;;4.51;42.27;101890.25;10219052;28;20122;-77
2023/02/09 14:45:48;;;;;;;21.63;11.02;;;;;;;4.50;42.16;101890.28;10216074;28;20045;-77
2023/02/09 14:50:55;;;;;;;21.50;11.48;;;;;;;4.39;42.11;101893.31;10217545;28;20042;-77
2023/02/09 14:55:58;;;;;;;22.88;11.02;;;;;;;4.23;42.40;101900.03;10214497;28;20051;-77
2023/02/09 15:07:53;;;;;;;20.33;9.98;;;;;;;4.02;42.01;101902.41;10203093;28;20035;-76
2023/02/09 15:12:56;;;;;;;21.33;9.73;;;;;;;3.93;42.40;101902.69;10208649;28;20086;-76
2023/02/09 15:18:00;;;;;;;19.75;9.23;;;;;;;3.89;42.11;101898.34;10203978;28;20047;-77
2023/02/09 15:23:04;;;;;;;22.05;8.95;;;;;;;3.36;42.90;101903.38;10209653;28;20052;-76
2023/02/09 15:28:12;;;;;;;18.00;8.82;;;;;;;3.44;42.66;101906.72;10218484;28;20047;-76
2023/02/09 15:33:15;;;;;;;17.75;9.10;;;;;;;3.57;42.85;101909.91;10198997;28;20043;-76
2023/02/09 15:38:19;;;;;;;23.58;10.52;;;;;;;3.70;42.79;101917.50;10210311;28;20050;-75
2023/02/09 15:48:44;;;;;;;18.92;10.68;;;;;;;3.36;44.02;101943.22;10211770;28;20043;-76
2023/02/09 15:53:48;;;;;;;19.92;9.70;;;;;;;3.36;43.97;101959.16;10212123;28;20053;-76
2023/02/09 15:58:52;;;;;;;19.13;9.73;;;;;;;3.26;44.07;101963.84;10199980;28;20430;-77
2023/02/09 16:03:56;;;;;;;22.90;10.05;;;;;;;3.23;43.63;101961.25;10213442;28;20062;-76
2023/02/09 16:09:20;;;;;;;22.77;11.00;;;;;;;3.07;44.05;101958.09;10209009;28;20051;-77
2023/02/09 16:14:25;;;;;;;16.95;9.65;;;;;;;3.02;44.35;101979.47;10219542;28;20503;-77
2023/02/09 16:19:28;;;;;;;23.00;10.20;;;;;;;2.94;44.57;101975.28;10215453;28;20047;-76
2023/02/09 16:24:36;;;;;;;25.95;10.88;;;;;;;2.84;44.61;101987.88;10214849;28;20452;-77
2023/02/09 16:29:40;;;;;;;23.35;10.95;;;;;;;2.94;44.74;101999.16;10212933;28;20057;-76
2023/02/09 16:34:43;;;;;;;22.10;10.98;;;;;;;2.78;45.54;102004.81;10205637;28;20187;-77
2023/02/09 16:39:47;;;;;;;24.60;12.82;;;;;;;2.52;46.16;102012.44;10235289;28;20043;-77
2023/02/09 16:44:50;;;;;;;24.20;12.00;;;;;;;2.38;46.56;102020.69;10210684;28;20051;-77
2023/02/09 16:49:59;;;;;;;24.40;12.23;;;;;;;2.24;47.54;102028.94;10200910;28;20047;-77
2023/02/09 16:55:06;;;;;;;22.70;11.65;;;;;;;2.12;47.46;102027.41;10208127;28;20131;-75
2023/02/09 17:00:10;;;;;;;23.80;13.07;;;;;;;2.22;47.86;102022.78;10214011;28;20523;-76
2023/02/09 17:05:18;;;;;;;26.20;11.45;;;;;;;2.27;47.29;102026.22;10213692;28;20055;-77
2023/02/09 17:10:27;;;;;;;24.55;12.55;;;;;;;2.29;46.84;102026.19;10207788;28;20039;-77
2023/02/09 17:15:32;;;;;;;21.90;11.10;;;;;;;2.30;46.63;102012.00;10211746;28;20053;-77
2023/02/09 17:20:40;;;;;;;24.10;11.73;;;;;;;2.24;46.91;102013.00;10207300;28;20407;-77
2023/02/09 17:25:44;;;;;;;16.70;9.52;;;;;;;2.09;46.94;102026.59;10209247;28;20107;-77
2023/02/09 17:30:49;;;;;;;24.25;11.07;;;;;;;2.19;47.63;102033.44;10205488;28;20776;-77
2023/02/09 17:35:52;;;;;;;30.73;13.02;;;;;;;2.16;47.67;102034.38;10197562;28;20050;-77
2023/02/09 17:41:18;;;;;;;23.13;12.02;;;;;;;2.11;47.68;102030.06;10207916;28;20042;-77
2023/02/09 17:46:21;;;;;;;29.42;12.90;;;;;;;2.15;47.74;102030.00;10197806;28;21397;-77
2023/02/09 17:51:30;;;;;;;23.08;10.45;;;;;;;1.93;47.74;102042.78;10191981;28;20067;-77
2023/02/09 17:56:34;;;;;;;27.10;12.48;;;;;;;2.14;47.42;102038.88;10188597;28;20424;-77
2023/02/09 18:01:40;;;;;;;30.15;13.10;;;;;;;2.20;47.73;102044.94;10197170;28;21589;-77
2023/02/09 18:06:43;;;;;;;29.60;12.98;;;;;;;2.33;47.22;102057.03;10183899;28;20561;-77
2023/02/09 18:12:00;;;;;;;22.58;12.25;;;;;;;2.55;46.90;102068.13;10189417;28;20053;-77
2023/02/09 18:17:03;;;;;;;27.85;14.23;;;;;;;2.39;47.64;102076.38;10214792;28;20078;-78
2023/02/09 18:22:06;;;;;;;23.90;12.15;;;;;;;2.56;46.61;102067.22;10193994;28;20415;-78
2023/02/09 18:27:13;;;;;;;24.67;12.77;;;;;;;2.57;46.78;102085.75;10195876;28;20052;-77
2023/02/09 18:32:17;;;;;;;20.33;9.75;;;;;;;2.34;47.06;102088.84;10171313;29;20044;-77
2023/02/09 18:37:19;;;;;;;27.17;13.23;;;;;;;2.62;46.85;102096.28;10189975;28;20142;-77
2023/02/09 18:42:24;;;;;;;26.67;13.63;;;;;;;2.57;46.74;102096.38;10215453;28;20055;-76
2023/02/09 18:47:26;;;;;;;23.77;13.05;;;;;;;2.57;47.23;102096.38;10210883;28;20058;-76
2023/02/09 18:52:29;;;;;;;28.33;12.55;;;;;;;2.60;47.04;102104.25;10211290;28;20050;-76
2023/02/09 18:57:33;;;;;;;31.30;14.40;;;;;;;2.60;47.35;102106.03;10201665;28;20043;-77
2023/02/09 19:02:36;;;;;;;28.00;13.55;;;;;;;2.52;47.63;102099.97;10210676;28;20469;-77
2023/02/09 19:07:39;;;;;;;29.50;13.63;;;;;;;2.53;47.61;102117.69;10212314;28;20051;-77
2023/02/09 19:12:44;;;;;;;19.90;10.38;;;;;;;2.49;47.88;102119.50;10208345;28;20050;-77
2023/02/09 19:17:46;;;;;;;26.13;13.90;;;;;;;2.31;48.38;102123.38;10205781;28;20078;-77
2023/02/09 19:22:50;;;;;;;23.23;11.88;;;;;;;2.32;48.44;102134.88;10213079;28;20047;-76
2023/02/09 19:27:55;;;;;;;33.72;13.50;;;;;;;2.50;48.50;102131.00;10204345;28;20052;-76
2023/02/09 19:32:58;;;;;;;26.55;14.00;;;;;;;2.53;48.55;102134.50;10195842;28;20052;-76
2023/02/09 19:38:01;;;;;;;24.17;12.55;;;;;;;2.60;48.38;102130.78;10182422;28;20680;-76
2023/02/09 19:43:06;;;;;;;26.42;12.88;;;;;;;2.58;48.34;102145.03;10191914;28;20150;-76
2023/02/09 19:48:10;;;;;;;28.65;15.15;;;;;;;2.31;48.69;102152.56;10193849;28;20510;-76
2023/02/09 19:53:14;;;;;;;29.73;14.20;;;;;;;2.45;48.39;102154.97;10182824;28;20495;-77
2023/02/09 19:58:20;;;;;;;28.13;14.63;;;;;;;2.49;49.09;102150.47;10198357;28;20051;-77
2023/02/09 20:03:23;;;;;;;22.40;13.70;;;;;;;2.15;50.69;102145.78;10189250;28;20047;-77
2023/02/09 20:08:26;;;;;;;25.63;13.15;;;;;;;1.75;53.98;102151.75;10201010;28;20047;-77
2023/02/09 20:13:30;;;;;;;21.58;11.48;;;;;;;1.87;55.86;102156.00;10178872;28;20048;-77
2023/02/09 20:18:35;;;;;;;27.70;16.38;;;;;;;1.73;59.34;102156.22;10176365;28;20043;-77
2023/02/09 20:23:38;;;;;;;31.35;18.23;;;;;;;1.37;61.31;102142.66;10198730;28;20565;-77
2023/02/09 20:28:43;;;;;;;29.13;13.38;;;;;;;1.52;62.09;102152.13;10182881;28;20158;-77
2023/02/09 20:33:46;;;;;;;35.72;18.40;;;;;;;1.75;61.48;102145.59;10171797;28;20051;-77
2023/02/09 20:38:48;;;;;;;34.47;19.00;;;;;;;1.85;61.41;102137.47;10192335;28;20194;-78
2023/02/09 20:49:15;;;;;;;35.88;18.15;;;;;;;1.40;63.03;102132.00;10188385;28;20095;-76
2023/02/09 20:54:18;;;;;;;28.70;15.13;;;;;;;1.47;63.26;102138.94;10202069;28;20079;-76
2023/02/09 20:59:22;;;;;;;25.17;13.30;;;;;;;1.17;64.63;102134.97;10206048;28;20043;-76
2023/02/09 21:04:28;;;;;;;20.85;10.18;;;;;;;1.26;64.43;102134.84;10196130;28;20058;-76
2023/02/09 21:09:33;;;;;;;33.10;16.75;;;;;;;1.34;64.50;102132.06;10188643;28;20048;-76
2023/02/09 21:14:37;;;;;;;28.52;16.27;;;;;;;1.65;63.96;102136.94;10175355;28;20075;-76
2023/02/09 21:19:44;;;;;;;35.92;18.33;;;;;;;1.86;62.80;102125.94;10207714;28;20526;-76
2023/02/09 21:24:47;;;;;;;46.17;19.00;;;;;;;1.86;62.75;102125.94;10221308;28;20569;-76
2023/02/09 21:29:51;;;;;;;29.50;16.20;;;;;;;1.58;63.29;102133.47;10220851;28;20055;-76
2023/02/09 21:34:54;;;;;;;33.45;16.80;;;;;;;1.33;64.33;102143.56;10212096;28;20065;-76
2023/02/09 21:40:00;;;;;;;22.67;11.52;;;;;;;1.15;64.83;102136.78;10209738;28;20182;-76
2023/02/09 21:45:05;;;;;;;33.45;16.63;;;;;;;1.12;64.88;102133.28;10205181;28;20051;-78
2023/02/09 21:50:11;;;;;;;31.13;15.18;;;;;;;1.32;64.75;102138.28;10203948;28;20126;-75
2023/02/09 21:55:15;;;;;;;32.35;16.27;;;;;;;1.07;65.44;102136.00;10244038;28;20083;-76
2023/02/09 22:00:20;;;;;;;30.35;15.68;;;;;;;1.47;64.14;102131.00;10223592;29;20151;-76
2023/02/09 22:05:23;;;;;;;33.05;16.63;;;;;;;1.54;64.66;102129.16;10226459;29;20048;-76
2023/02/09 22:10:26;;;;;;;24.27;13.50;;;;;;;1.14;66.52;102137.66;10223226;29;20055;-76
2023/02/09 22:15:31;;;;;;;44.47;21.88;;;;;;;1.52;66.01;102133.59;10235729;28;20118;-76
2023/02/09 22:20:33;;;;;;;45.83;21.63;;;;;;;1.60;65.63;102141.41;10254682;28;20051;-76
2023/02/09 22:25:36;;;;;;;42.17;15.73;;;;;;;1.45;65.92;102143.41;10259318;28;20102;-76
2023/02/09 22:30:40;;;;;;;43.95;21.15;;;;;;;1.58;66.86;102146.72;10221083;29;20043;-76
2023/02/09 22:35:43;;;;;;;32.80;14.18;;;;;;;1.58;65.97;102152.03;10227358;29;20055;-76
2023/02/09 22:40:46;;;;;;;51.00;23.67;;;;;;;1.93;65.46;102155.88;10228001;29;20047;-76
2023/02/09 22:45:55;;;;;;;50.88;22.45;;;;;;;1.83;65.42;102168.41;10217082;29;20089;-75
2023/02/09 22:50:58;;;;;;;33.85;13.45;;;;;;;1.60;66.54;102179.38;10221688;29;20065;-77
2023/02/09 22:56:02;;;;;;;46.60;24.45;;;;;;;2.01;65.94;102203.50;10240104;29;20138;-77
2023/02/09 23:01:06;;;;;;;38.30;18.90;;;;;;;1.56;66.16;102200.63;10230916;29;20073;-76
2023/02/09 23:06:12;;;;;;;45.80;22.65;;;;;;;1.89;65.90;102202.78;10224618;29;20065;-77
2023/02/09 23:11:17;;;;;;;39.75;18.52;;;;;;;1.61;66.70;102207.59;10216512;29;20057;-76
2023/02/09 23:16:23;;;;;;;45.20;19.95;;;;;;;2.09;65.93;102218.38;10224961;28;20054;-76
2023/02/09 23:21:29;;;;;;;52.20;24.30;;;;;;;1.73;66.63;102225.13;10233885;29;20054;-75
2023/02/09 23:26:32;;;;;;;49.70;20.75;;;;;;;1.76;66.42;102222.41;10242362;28;20044;-76
2023/02/09 23:31:36;;;;;;;47.83;23.17;;;;;;;2.00;66.48;102220.28;10216256;29;20415;-76
2023/02/09 23:36:39;;;;;;;52.53;24.25;;;;;;;1.92;66.18;102231.00;10220510;29;20057;-76